createdAt,value
2023-11-29T00:00:04.401Z,78.8
2023-11-29T00:01:04.572Z,72.9
2023-11-29T00:02:04.615Z,61.5
2023-11-29T00:03:05.141Z,64.5
2023-11-29T00:04:04.305Z,62.2
2023-11-29T00:05:08.171Z,59.7
2023-11-29T00:06:04.480Z,58.7
2023-11-29T00:07:04.345Z,60.8
2023-11-29T00:08:04.311Z,64.8
2023-11-29T00:09:06.283Z,62.3
2023-11-29T00:10:04.233Z,75.5
2023-11-29T00:11:04.403Z,67.2
2023-11-29T00:12:04.587Z,74.0
2023-11-29T00:13:04.248Z,61.1
2023-11-29T00:14:04.370Z,75.7
2023-11-29T00:15:04.398Z,58.9
2023-11-29T00:16:04.326Z,76.2
2023-11-29T00:17:10.947Z,61.3
2023-11-29T00:18:04.794Z,73.1
2023-11-29T00:19:04.490Z,73.4
2023-11-29T00:20:04.457Z,79.8
2023-11-29T00:21:04.450Z,69.9
2023-11-29T00:22:04.385Z,70.4
2023-11-29T00:23:04.332Z,65.8
2023-11-29T00:24:05.185Z,73.1
2023-11-29T00:25:04.573Z,76.4
2023-11-29T00:26:04.561Z,62.3
2023-11-29T00:27:04.375Z,56.4
2023-11-29T00:28:07.192Z,80.9
2023-11-29T00:29:04.459Z,112.6
2023-11-29T00:30:04.356Z,86.7
2023-11-29T00:31:04.248Z,63.3
2023-11-29T00:32:04.363Z,56.8
2023-11-29T00:33:04.664Z,86.4
2023-11-29T00:34:06.066Z,79.9
2023-11-29T00:35:04.425Z,63.1
2023-11-29T00:36:04.543Z,68.7
2023-11-29T00:37:05.403Z,72.7
2023-11-29T00:38:05.142Z,154.5
2023-11-29T00:39:05.249Z,134.7
2023-11-29T00:40:04.312Z,141.0
2023-11-29T00:41:05.321Z,77.7
2023-11-29T00:42:05.100Z,148.9
2023-11-29T00:43:10.627Z,114.0
2023-11-29T00:44:04.639Z,69.9
2023-11-29T00:45:05.130Z,68.9
2023-11-29T00:46:06.136Z,114.4
2023-11-29T00:47:04.426Z,117.2
2023-11-29T00:48:04.501Z,76.9
2023-11-29T00:49:05.121Z,95.0
2023-11-29T00:50:04.701Z,117.3
2023-11-29T00:51:04.266Z,93.6
2023-11-29T00:52:05.568Z,95.8
2023-11-29T00:53:04.267Z,83.4
2023-11-29T00:54:04.261Z,75.3
2023-11-29T00:55:04.194Z,74.1
2023-11-29T00:56:04.285Z,66.1
2023-11-29T00:57:04.269Z,91.3
2023-11-29T00:58:04.297Z,90.6
2023-11-29T00:59:04.473Z,63.3
2023-11-29T01:00:04.168Z,74.3
2023-11-29T01:01:04.358Z,62.2
2023-11-29T01:02:04.323Z,58.3
2023-11-29T01:03:05.096Z,62.8
2023-11-29T01:04:05.066Z,114.5
2023-11-29T01:05:05.220Z,153.9
2023-11-29T01:06:06.550Z,134.4
2023-11-29T01:07:04.185Z,115.6
2023-11-29T01:08:05.131Z,78.6
2023-11-29T01:09:05.172Z,109.0
2023-11-29T01:10:05.123Z,267.7
2023-11-29T01:11:05.100Z,148.9
2023-11-29T01:12:05.532Z,183.0
2023-11-29T01:13:05.428Z,151.6
2023-11-29T01:14:05.223Z,150.2
2023-11-29T01:15:05.055Z,188.4
2023-11-29T01:16:05.156Z,107.6
2023-11-29T01:17:05.286Z,153.6
2023-11-29T01:18:04.316Z,124.5
2023-11-29T01:19:04.291Z,96.9
2023-11-29T01:20:04.136Z,66.6
2023-11-29T01:21:04.231Z,58.2
2023-11-29T01:22:04.118Z,50.1
2023-11-29T01:23:04.196Z,50.1
2023-11-29T01:24:04.181Z,51.0
2023-11-29T01:25:04.129Z,47.4
2023-11-29T01:26:04.368Z,49.8
2023-11-29T01:27:05.970Z,50.2
2023-11-29T01:28:04.256Z,46.1
2023-11-29T01:29:04.319Z,49.3
2023-11-29T01:30:04.105Z,48.4
2023-11-29T01:31:04.339Z,49.8
2023-11-29T01:32:04.264Z,51.9
2023-11-29T01:33:04.223Z,52.4
2023-11-29T01:34:04.186Z,49.7
2023-11-29T01:35:04.206Z,47.0
2023-11-29T01:36:04.143Z,72.2
2023-11-29T01:37:04.133Z,93.5
2023-11-29T01:38:04.248Z,92.4
2023-11-29T01:39:04.343Z,81.4
2023-11-29T01:40:04.301Z,91.4
2023-11-29T01:41:04.083Z,77.6
2023-11-29T01:42:04.352Z,57.2
2023-11-29T01:43:04.137Z,56.7
2023-11-29T01:44:04.172Z,52.1
2023-11-29T01:45:04.104Z,55.7
2023-11-29T01:46:04.281Z,51.9
2023-11-29T01:47:04.213Z,50.5
2023-11-29T01:48:04.161Z,51.0
2023-11-29T01:49:04.403Z,54.6
2023-11-29T01:50:08.767Z,54.1
2023-11-29T01:51:06.442Z,53.3
2023-11-29T01:52:04.135Z,55.3
2023-11-29T01:53:11.201Z,56.0
2023-11-29T01:54:04.112Z,51.8
2023-11-29T01:55:04.083Z,52.3
2023-11-29T01:56:04.070Z,46.4
2023-11-29T01:57:04.102Z,51.3
2023-11-29T01:58:04.268Z,50.0
2023-11-29T01:59:04.081Z,51.2
2023-11-29T02:00:04.134Z,52.2
2023-11-29T02:01:04.067Z,55.3
2023-11-29T02:02:04.592Z,49.9
2023-11-29T02:03:04.285Z,52.6
2023-11-29T02:04:04.257Z,50.6
2023-11-29T02:05:04.068Z,54.4
2023-11-29T02:06:04.084Z,51.8
2023-11-29T02:07:26.349Z,56.3
2023-11-29T02:08:04.418Z,50.5
2023-11-29T02:09:04.081Z,54.0
2023-11-29T02:10:04.199Z,50.5
2023-11-29T02:11:04.184Z,51.7
2023-11-29T02:12:04.610Z,55.2
2023-11-29T02:13:04.280Z,51.4
2023-11-29T02:14:04.036Z,55.6
2023-11-29T02:15:04.126Z,55.7
2023-11-29T02:16:04.193Z,52.3
2023-11-29T02:17:04.034Z,58.1
2023-11-29T02:18:04.132Z,53.8
2023-11-29T02:19:04.116Z,53.5
2023-11-29T02:20:04.063Z,64.5
2023-11-29T02:21:04.256Z,89.4
2023-11-29T02:22:04.087Z,61.2
2023-11-29T02:23:04.125Z,51.5
2023-11-29T02:24:04.239Z,63.9
2023-11-29T02:25:04.072Z,52.7
2023-11-29T02:26:04.003Z,59.4
2023-11-29T02:27:04.033Z,62.2
2023-11-29T02:28:04.121Z,55.8
2023-11-29T02:29:04.034Z,48.2
2023-11-29T02:30:04.041Z,64.3
2023-11-29T02:31:04.045Z,55.2
2023-11-29T02:32:04.098Z,47.1
2023-11-29T02:33:04.223Z,54.0
2023-11-29T02:34:04.054Z,51.3
2023-11-29T02:35:04.213Z,49.2
2023-11-29T02:36:13.749Z,58.3
2023-11-29T02:37:04.028Z,58.1
2023-11-29T02:38:03.996Z,59.6
2023-11-29T02:39:04.070Z,62.2
2023-11-29T02:40:04.019Z,60.5
2023-11-29T02:41:04.170Z,55.9
2023-11-29T02:42:04.013Z,55.8
2023-11-29T02:43:07.174Z,56.1
2023-11-29T02:44:04.223Z,61.3
2023-11-29T02:45:04.059Z,56.1
2023-11-29T02:46:04.130Z,49.5
2023-11-29T02:47:04.072Z,52.4
2023-11-29T02:48:04.231Z,46.2
2023-11-29T02:49:04.006Z,51.8
2023-11-29T02:50:04.026Z,57.9
2023-11-29T02:51:03.998Z,70.6
2023-11-29T02:52:04.107Z,80.2
2023-11-29T02:53:04.007Z,72.3
2023-11-29T02:54:03.995Z,62.0
2023-11-29T02:55:03.988Z,62.8
2023-11-29T02:56:04.168Z,64.9
2023-11-29T02:57:04.279Z,64.2
2023-11-29T02:58:04.258Z,68.3
2023-11-29T02:59:04.013Z,57.9
2023-11-29T03:00:04.131Z,62.0
2023-11-29T03:01:04.085Z,68.9
2023-11-29T03:02:04.046Z,60.0
2023-11-29T03:03:04.048Z,54.5
2023-11-29T03:04:04.236Z,54.4
2023-11-29T03:05:04.292Z,48.7
2023-11-29T03:06:04.006Z,48.8
2023-11-29T03:07:04.022Z,49.3
2023-11-29T03:08:04.019Z,54.6
2023-11-29T03:09:03.984Z,49.8
2023-11-29T03:10:04.018Z,78.5
2023-11-29T03:11:08.030Z,71.3
2023-11-29T03:12:03.964Z,62.9
2023-11-29T03:13:04.020Z,54.3
2023-11-29T03:14:04.756Z,65.7
2023-11-29T03:15:03.958Z,67.7
2023-11-29T03:16:05.769Z,55.3
2023-11-29T03:17:03.973Z,64.9
2023-11-29T03:18:04.335Z,62.1
2023-11-29T03:19:05.523Z,59.2
2023-11-29T03:20:03.995Z,53.7
2023-11-29T03:21:05.416Z,53.7
2023-11-29T03:22:03.953Z,59.4
2023-11-29T03:23:04.045Z,51.5
2023-11-29T03:24:03.941Z,55.6
2023-11-29T03:25:04.135Z,57.7
2023-11-29T03:26:03.959Z,50.9
2023-11-29T03:27:03.965Z,54.5
2023-11-29T03:28:04.919Z,49.4
2023-11-29T03:29:03.938Z,62.2
2023-11-29T03:30:03.929Z,58.5
2023-11-29T03:31:03.943Z,57.3
2023-11-29T03:32:03.933Z,77.3
2023-11-29T03:33:04.092Z,64.6
2023-11-29T03:34:03.976Z,55.4
2023-11-29T03:35:03.982Z,51.0
2023-11-29T03:36:03.978Z,48.6
2023-11-29T03:37:03.923Z,46.8
2023-11-29T03:38:03.952Z,49.6
2023-11-29T03:39:04.084Z,46.0
2023-11-29T03:40:03.953Z,48.0
2023-11-29T03:41:03.882Z,49.1
2023-11-29T03:42:04.138Z,48.7
2023-11-29T03:43:03.960Z,52.0
2023-11-29T03:44:03.934Z,54.8
2023-11-29T03:45:03.916Z,56.7
2023-11-29T03:46:03.968Z,50.4
2023-11-29T03:47:03.912Z,65.1
2023-11-29T03:48:04.049Z,65.1
2023-11-29T03:49:04.227Z,65.2
2023-11-29T03:50:03.915Z,60.8
2023-11-29T03:51:03.931Z,87.4
2023-11-29T03:52:04.165Z,65.2
2023-11-29T03:53:04.757Z,55.2
2023-11-29T03:54:03.968Z,54.6
2023-11-29T03:55:03.923Z,57.4
2023-11-29T03:56:03.917Z,58.0
2023-11-29T03:57:03.945Z,58.2
2023-11-29T03:58:05.255Z,50.9
2023-11-29T03:59:03.919Z,47.4
2023-11-29T04:00:03.962Z,53.8
2023-11-29T04:01:04.002Z,49.5
2023-11-29T04:02:04.009Z,49.7
2023-11-29T04:03:04.035Z,53.6
2023-11-29T04:04:04.174Z,51.0
2023-11-29T04:05:05.209Z,51.3
2023-11-29T04:06:03.960Z,49.0
2023-11-29T04:07:04.073Z,49.8
2023-11-29T04:08:03.875Z,51.8
2023-11-29T04:09:03.904Z,75.4
2023-11-29T04:10:09.596Z,71.4
2023-11-29T04:11:03.874Z,68.1
2023-11-29T04:12:03.914Z,62.4
2023-11-29T04:13:03.946Z,60.3
2023-11-29T04:14:03.906Z,59.2
2023-11-29T04:15:04.083Z,67.1
2023-11-29T04:16:03.964Z,59.5
2023-11-29T04:17:03.965Z,60.3
2023-11-29T04:18:04.017Z,59.2
2023-11-29T04:19:03.890Z,67.3
2023-11-29T04:20:03.883Z,56.8
2023-11-29T04:21:05.820Z,61.1
2023-11-29T04:22:03.918Z,69.0
2023-11-29T04:23:03.941Z,54.7
2023-11-29T04:24:03.914Z,55.0
2023-11-29T04:25:03.892Z,60.4
2023-11-29T04:26:03.891Z,55.5
2023-11-29T04:27:04.457Z,60.0
2023-11-29T04:28:03.942Z,63.3
2023-11-29T04:29:04.869Z,65.6
2023-11-29T04:30:04.105Z,57.5
2023-11-29T04:31:03.984Z,50.6
2023-11-29T04:32:03.879Z,64.0
2023-11-29T04:33:04.203Z,55.5
2023-11-29T04:34:09.498Z,60.8
2023-11-29T04:35:03.838Z,60.8
2023-11-29T04:36:03.880Z,58.3
2023-11-29T04:37:03.818Z,58.2
2023-11-29T04:38:03.934Z,54.1
2023-11-29T04:39:03.824Z,58.6
2023-11-29T04:40:03.841Z,55.8
2023-11-29T04:41:03.840Z,56.4
2023-11-29T04:42:03.784Z,55.3
2023-11-29T04:43:03.830Z,55.4
2023-11-29T04:44:05.667Z,54.9
2023-11-29T04:45:04.193Z,57.3
2023-11-29T04:46:03.907Z,60.2
2023-11-29T04:47:03.958Z,51.9
2023-11-29T04:48:03.998Z,56.7
2023-11-29T04:49:03.832Z,55.9
2023-11-29T04:50:03.913Z,54.7
2023-11-29T04:51:03.902Z,57.5
2023-11-29T04:52:03.949Z,52.6
2023-11-29T04:53:03.798Z,52.6
2023-11-29T04:54:03.883Z,55.7
2023-11-29T04:55:03.888Z,52.7
2023-11-29T04:56:03.929Z,52.9
2023-11-29T04:57:03.868Z,59.1
2023-11-29T04:58:03.820Z,65.9
2023-11-29T04:59:03.990Z,60.7
2023-11-29T05:00:03.796Z,59.1
2023-11-29T05:01:03.876Z,53.3
2023-11-29T05:02:10.389Z,49.3
2023-11-29T05:03:04.018Z,47.4
2023-11-29T05:04:03.904Z,45.2
2023-11-29T05:05:03.800Z,50.1
2023-11-29T05:06:04.218Z,50.9
2023-11-29T05:07:03.887Z,55.1
2023-11-29T05:08:03.812Z,54.6
2023-11-29T05:09:03.769Z,52.2
2023-11-29T05:10:03.998Z,50.6
2023-11-29T05:11:03.767Z,48.9
2023-11-29T05:12:03.763Z,45.4
2023-11-29T05:13:03.780Z,48.8
2023-11-29T05:14:03.813Z,47.6
2023-11-29T05:15:03.802Z,51.5
2023-11-29T05:16:03.775Z,52.6
2023-11-29T05:17:06.100Z,46.6
2023-11-29T05:18:04.092Z,43.1
2023-11-29T05:19:04.123Z,43.5
2023-11-29T05:20:05.519Z,44.4
2023-11-29T05:21:03.980Z,44.6
2023-11-29T05:22:04.000Z,48.5
2023-11-29T05:23:03.756Z,46.3
2023-11-29T05:24:03.831Z,49.7
2023-11-29T05:25:03.870Z,44.5
2023-11-29T05:26:05.849Z,45.0
2023-11-29T05:27:03.747Z,49.9
2023-11-29T05:28:03.762Z,47.2
2023-11-29T05:29:03.746Z,44.0
2023-11-29T05:30:03.817Z,46.4
2023-11-29T05:31:03.946Z,46.2
2023-11-29T05:32:03.987Z,52.3
2023-11-29T05:33:04.051Z,48.4
2023-11-29T05:34:03.743Z,48.8
2023-11-29T05:35:03.871Z,55.4
2023-11-29T05:36:04.355Z,47.7
2023-11-29T05:37:03.769Z,48.6
2023-11-29T05:38:04.217Z,45.9
2023-11-29T05:39:03.743Z,50.1
2023-11-29T05:40:03.830Z,52.1
2023-11-29T05:41:03.779Z,66.6
2023-11-29T05:42:03.764Z,62.0
2023-11-29T05:43:03.750Z,81.6
2023-11-29T05:44:03.724Z,63.0
2023-11-29T05:45:03.678Z,55.0
2023-11-29T05:46:06.266Z,64.7
2023-11-29T05:47:03.767Z,58.1
2023-11-29T05:48:03.870Z,50.8
2023-11-29T05:49:03.937Z,50.0
2023-11-29T05:50:03.743Z,49.6
2023-11-29T05:51:03.773Z,44.6
2023-11-29T05:52:03.695Z,40.7
2023-11-29T05:53:03.861Z,43.5
2023-11-29T05:54:03.736Z,44.7
2023-11-29T05:55:04.226Z,41.8
2023-11-29T05:56:03.673Z,43.6
2023-11-29T05:57:03.692Z,41.5
2023-11-29T05:58:03.675Z,43.9
2023-11-29T05:59:03.685Z,43.2
2023-11-29T06:00:08.372Z,47.2
2023-11-29T06:01:03.721Z,51.4
2023-11-29T06:02:03.717Z,47.3
2023-11-29T06:03:03.802Z,45.6
2023-11-29T06:04:04.461Z,43.2
2023-11-29T06:05:03.717Z,45.2
2023-11-29T06:06:03.688Z,44.9
2023-11-29T06:07:03.919Z,69.9
2023-11-29T06:08:03.703Z,62.2
2023-11-29T06:09:06.385Z,58.5
2023-11-29T06:10:03.721Z,78.0
2023-11-29T06:11:03.742Z,78.6
2023-11-29T06:12:03.810Z,55.2
2023-11-29T06:13:03.747Z,50.2
2023-11-29T06:14:03.660Z,48.8
2023-11-29T06:15:06.899Z,45.4
2023-11-29T06:16:03.687Z,43.5
2023-11-29T06:17:04.227Z,41.5
2023-11-29T06:18:03.744Z,42.5
2023-11-29T06:19:04.120Z,43.1
2023-11-29T06:20:03.663Z,42.7
2023-11-29T06:21:04.308Z,42.3
2023-11-29T06:22:06.027Z,41.8
2023-11-29T06:23:04.578Z,41.3
2023-11-29T06:24:05.085Z,43.5
2023-11-29T06:25:03.711Z,41.7
2023-11-29T06:26:04.214Z,43.6
2023-11-29T06:27:04.593Z,46.9
2023-11-29T06:28:04.419Z,50.1
2023-11-29T06:29:03.632Z,42.8
2023-11-29T06:30:06.005Z,44.5
2023-11-29T06:31:04.456Z,39.0
2023-11-29T06:32:03.671Z,44.1
2023-11-29T06:33:03.776Z,52.0
2023-11-29T06:34:09.007Z,49.8
2023-11-29T06:35:03.748Z,57.9
2023-11-29T06:36:04.642Z,52.1
2023-11-29T06:37:03.646Z,47.0
2023-11-29T06:38:08.123Z,50.2
2023-11-29T06:39:03.713Z,47.0
2023-11-29T06:40:03.693Z,54.3
2023-11-29T06:41:04.074Z,57.4
2023-11-29T06:42:04.642Z,56.3
2023-11-29T06:43:03.703Z,57.6
2023-11-29T06:44:03.922Z,59.9
2023-11-29T06:45:04.010Z,66.0
2023-11-29T06:46:05.171Z,50.8
2023-11-29T06:47:03.865Z,55.2
2023-11-29T06:48:03.739Z,47.6
2023-11-29T06:49:03.664Z,44.5
2023-11-29T06:50:04.488Z,45.3
2023-11-29T06:51:03.828Z,41.6
2023-11-29T06:52:04.167Z,40.0
2023-11-29T06:53:03.666Z,44.5
2023-11-29T06:54:03.568Z,43.5
2023-11-29T06:55:03.629Z,38.9
2023-11-29T06:56:03.696Z,43.1
2023-11-29T06:57:03.932Z,40.3
2023-11-29T06:58:11.082Z,42.4
2023-11-29T06:59:04.092Z,43.7
2023-11-29T07:00:03.629Z,40.6
2023-11-29T07:01:03.596Z,56.1
2023-11-29T07:02:03.751Z,50.2
2023-11-29T07:03:03.678Z,50.4
2023-11-29T07:04:03.783Z,46.0
2023-11-29T07:05:03.667Z,46.0
2023-11-29T07:06:04.641Z,45.1
2023-11-29T07:07:03.668Z,45.0
2023-11-29T07:08:03.596Z,40.4
2023-11-29T07:09:03.837Z,43.3
2023-11-29T07:10:03.732Z,40.2
2023-11-29T07:11:03.756Z,41.2
2023-11-29T07:12:03.696Z,49.4
2023-11-29T07:13:03.722Z,43.7
2023-11-29T07:14:03.674Z,44.8
2023-11-29T07:15:03.817Z,40.4
2023-11-29T07:16:03.757Z,42.1
2023-11-29T07:17:03.562Z,42.6
2023-11-29T07:18:04.391Z,39.7
2023-11-29T07:19:03.595Z,36.9
2023-11-29T07:20:03.812Z,35.7
2023-11-29T07:21:05.547Z,36.9
2023-11-29T07:22:03.726Z,39.9
2023-11-29T07:23:03.708Z,46.2
2023-11-29T07:24:03.703Z,38.6
2023-11-29T07:25:03.564Z,57.5
2023-11-29T07:26:03.952Z,64.2
2023-11-29T07:27:03.660Z,52.3
2023-11-29T07:28:03.610Z,56.8
2023-11-29T07:29:03.856Z,52.9
2023-11-29T07:30:03.657Z,67.5
2023-11-29T07:31:04.088Z,73.3
2023-11-29T07:32:03.703Z,53.8
2023-11-29T07:33:03.664Z,47.8
2023-11-29T07:34:03.587Z,44.7
2023-11-29T07:35:03.564Z,39.6
2023-11-29T07:36:03.787Z,39.6
2023-11-29T07:37:03.652Z,75.9
2023-11-29T07:38:03.506Z,44.6
2023-11-29T07:39:03.588Z,41.5
2023-11-29T07:40:03.544Z,42.3
2023-11-29T07:41:03.557Z,58.6
2023-11-29T07:42:03.555Z,88.1
2023-11-29T07:43:03.594Z,56.8
2023-11-29T07:44:03.592Z,79.6
2023-11-29T07:45:04.218Z,55.2
2023-11-29T07:46:03.595Z,64.1
2023-11-29T07:47:03.600Z,41.5
2023-11-29T07:48:04.217Z,39.7
2023-11-29T07:49:04.298Z,37.0
2023-11-29T07:50:03.600Z,37.1
2023-11-29T07:51:03.608Z,35.4
2023-11-29T07:52:03.627Z,34.7
2023-11-29T07:53:03.807Z,32.8
2023-11-29T07:54:03.579Z,37.1
2023-11-29T07:55:03.620Z,34.5
2023-11-29T07:56:03.544Z,34.4
2023-11-29T07:57:03.550Z,35.6
2023-11-29T07:58:03.512Z,34.4
2023-11-29T07:59:03.612Z,35.8
2023-11-29T08:00:03.679Z,50.1
2023-11-29T08:01:03.623Z,42.0
2023-11-29T08:02:03.580Z,39.7
2023-11-29T08:03:03.682Z,40.3
2023-11-29T08:04:03.702Z,41.8
2023-11-29T08:05:03.588Z,45.4
2023-11-29T08:06:03.536Z,46.2
2023-11-29T08:07:03.543Z,37.1
2023-11-29T08:08:03.481Z,55.1
2023-11-29T08:09:03.580Z,41.4
2023-11-29T08:10:03.725Z,43.9
2023-11-29T08:11:03.775Z,42.6
2023-11-29T08:12:03.607Z,37.6
2023-11-29T08:13:03.647Z,43.2
2023-11-29T08:14:03.466Z,62.0
2023-11-29T08:15:03.737Z,50.3
2023-11-29T08:16:03.591Z,42.2
2023-11-29T08:17:03.517Z,39.7
2023-11-29T08:18:03.553Z,41.3
2023-11-29T08:19:04.105Z,41.7
2023-11-29T08:20:03.555Z,43.4
2023-11-29T08:21:03.615Z,43.7
2023-11-29T08:22:03.539Z,41.8
2023-11-29T08:23:03.503Z,42.1
2023-11-29T08:24:03.559Z,42.5
2023-11-29T08:25:03.480Z,40.3
2023-11-29T08:26:03.811Z,40.7
2023-11-29T08:27:03.603Z,38.4
2023-11-29T08:28:03.624Z,43.5
2023-11-29T08:29:03.538Z,40.2
2023-11-29T08:30:03.748Z,41.7
2023-11-29T08:31:05.675Z,39.8
2023-11-29T08:32:03.533Z,40.5
2023-11-29T08:33:03.519Z,40.0
2023-11-29T08:34:03.532Z,40.5
2023-11-29T08:35:03.471Z,42.1
2023-11-29T08:36:03.521Z,39.5
2023-11-29T08:37:03.471Z,43.0
2023-11-29T08:38:04.373Z,40.8
2023-11-29T08:39:03.570Z,44.7
2023-11-29T08:40:03.747Z,41.5
2023-11-29T08:41:03.644Z,42.8
2023-11-29T08:42:03.533Z,48.2
2023-11-29T08:43:11.530Z,47.1
2023-11-29T08:44:03.528Z,50.5
2023-11-29T08:45:03.450Z,56.6
2023-11-29T08:46:03.475Z,45.5
2023-11-29T08:47:04.737Z,65.1
2023-11-29T08:48:03.494Z,52.1
2023-11-29T08:49:03.609Z,49.5
2023-11-29T08:50:03.466Z,49.9
2023-11-29T08:51:03.493Z,43.3
2023-11-29T08:52:03.471Z,48.2
2023-11-29T08:53:03.432Z,63.4
2023-11-29T08:54:03.478Z,50.4
2023-11-29T08:55:03.436Z,79.8
2023-11-29T08:56:03.416Z,61.3
2023-11-29T08:57:04.447Z,77.1
2023-11-29T08:58:04.272Z,197.6
2023-11-29T08:59:04.283Z,350.6
2023-11-29T09:00:04.200Z,190.2
2023-11-29T09:01:04.127Z,110.0
2023-11-29T09:02:03.491Z,95.1
2023-11-29T09:03:03.946Z,70.2
2023-11-29T09:04:03.786Z,68.7
2023-11-29T09:05:03.488Z,57.0
2023-11-29T09:06:03.605Z,51.2
2023-11-29T09:07:03.744Z,44.0
2023-11-29T09:08:03.509Z,44.0
2023-11-29T09:09:03.669Z,44.9
2023-11-29T09:10:03.453Z,43.3
2023-11-29T09:11:03.428Z,92.0
2023-11-29T09:12:03.617Z,63.7
2023-11-29T09:13:03.472Z,48.3
2023-11-29T09:14:03.470Z,42.9
2023-11-29T09:15:03.487Z,45.4
2023-11-29T09:16:04.707Z,48.9
2023-11-29T09:17:03.474Z,81.7
2023-11-29T09:18:03.467Z,92.8
2023-11-29T09:19:04.248Z,78.3
2023-11-29T09:20:03.390Z,123.7
2023-11-29T09:21:03.510Z,61.2
2023-11-29T09:22:03.407Z,82.3
2023-11-29T09:23:04.209Z,94.8
2023-11-29T09:24:04.320Z,107.1
2023-11-29T09:25:06.467Z,207.2
2023-11-29T09:26:04.113Z,190.4
2023-11-29T09:27:04.361Z,168.9
2023-11-29T09:28:03.434Z,107.4
2023-11-29T09:29:04.204Z,64.9
2023-11-29T09:30:04.319Z,137.2
2023-11-29T09:31:03.548Z,120.2
2023-11-29T09:32:03.370Z,66.1
2023-11-29T09:33:03.505Z,62.6
2023-11-29T09:34:03.450Z,55.8
2023-11-29T09:35:03.453Z,45.9
2023-11-29T09:36:03.487Z,46.0
2023-11-29T09:37:03.374Z,42.1
2023-11-29T09:38:03.365Z,44.8
2023-11-29T09:39:03.398Z,40.5
2023-11-29T09:40:03.466Z,44.4
2023-11-29T09:41:03.419Z,42.4
2023-11-29T09:42:03.450Z,45.3
2023-11-29T09:43:03.426Z,42.7
2023-11-29T09:44:03.399Z,43.8
2023-11-29T09:45:03.409Z,43.2
2023-11-29T09:46:03.348Z,51.4
2023-11-29T09:47:03.384Z,47.7
2023-11-29T09:48:03.440Z,45.7
2023-11-29T09:49:03.335Z,48.5
2023-11-29T09:50:03.370Z,43.2
2023-11-29T09:51:03.437Z,46.3
2023-11-29T09:52:03.550Z,49.3
2023-11-29T09:53:03.381Z,45.0
2023-11-29T09:54:03.404Z,42.8
2023-11-29T09:55:03.406Z,39.3
2023-11-29T09:56:03.376Z,39.6
2023-11-29T09:57:03.370Z,33.6
2023-11-29T09:58:03.407Z,37.2
2023-11-29T09:59:03.359Z,38.4
2023-11-29T10:00:03.443Z,36.0
2023-11-29T10:01:03.415Z,37.0
2023-11-29T10:02:03.459Z,54.8
2023-11-29T10:03:03.593Z,54.6
2023-11-29T10:04:03.484Z,53.3
2023-11-29T10:05:03.329Z,44.1
2023-11-29T10:06:03.401Z,44.9
2023-11-29T10:07:03.327Z,42.2
2023-11-29T10:08:03.295Z,42.5
2023-11-29T10:09:03.456Z,50.0
2023-11-29T10:10:03.361Z,42.0
2023-11-29T10:11:03.288Z,39.3
2023-11-29T10:12:04.094Z,43.5
2023-11-29T10:13:03.352Z,40.0
2023-11-29T10:14:03.333Z,37.7
2023-11-29T10:15:07.883Z,42.7
2023-11-29T10:16:03.279Z,44.5
2023-11-29T10:17:03.285Z,42.3
2023-11-29T10:18:03.410Z,39.9
2023-11-29T10:19:03.539Z,38.1
2023-11-29T10:20:03.313Z,40.9
2023-11-29T10:21:07.558Z,39.3
2023-11-29T10:22:03.384Z,38.8
2023-11-29T10:23:03.318Z,39.0
2023-11-29T10:24:03.501Z,35.6
2023-11-29T10:25:03.401Z,35.9
2023-11-29T10:26:03.312Z,36.1
2023-11-29T10:27:03.350Z,38.9
2023-11-29T10:28:03.360Z,37.8
2023-11-29T10:29:03.327Z,35.9
2023-11-29T10:30:03.429Z,40.1
2023-11-29T10:31:03.337Z,39.2
2023-11-29T10:32:03.337Z,40.7
2023-11-29T10:33:03.322Z,46.5
2023-11-29T10:34:03.301Z,44.0
2023-11-29T10:35:03.474Z,42.4
2023-11-29T10:36:03.399Z,48.1
2023-11-29T10:37:03.279Z,51.3
2023-11-29T10:38:03.371Z,57.8
2023-11-29T10:39:04.361Z,52.6
2023-11-29T10:40:03.304Z,53.0
2023-11-29T10:41:03.307Z,53.9
2023-11-29T10:42:03.390Z,50.7
2023-11-29T10:43:03.256Z,49.4
2023-11-29T10:44:03.339Z,45.9
2023-11-29T10:45:03.456Z,45.9
2023-11-29T10:46:03.667Z,50.1
2023-11-29T10:47:03.495Z,84.8
2023-11-29T10:48:03.637Z,53.4
2023-11-29T10:49:03.510Z,50.6
2023-11-29T10:50:03.271Z,48.0
2023-11-29T10:51:03.560Z,49.3
2023-11-29T10:52:03.307Z,46.3
2023-11-29T10:53:03.289Z,50.5
2023-11-29T10:54:04.388Z,46.5
2023-11-29T10:55:03.432Z,49.3
2023-11-29T10:56:03.290Z,53.9
2023-11-29T10:57:03.355Z,52.0
2023-11-29T10:58:03.263Z,52.5
2023-11-29T10:59:03.265Z,54.5
2023-11-29T11:00:03.391Z,54.3
2023-11-29T11:01:03.316Z,53.6
2023-11-29T11:02:03.423Z,52.9
2023-11-29T11:03:03.389Z,54.9
2023-11-29T11:04:03.413Z,62.8
2023-11-29T11:05:03.992Z,57.1
2023-11-29T11:06:03.810Z,60.1
2023-11-29T11:07:04.796Z,53.3
2023-11-29T11:08:03.284Z,56.0
2023-11-29T11:09:03.297Z,53.0
2023-11-29T11:10:03.423Z,56.3
2023-11-29T11:11:03.758Z,56.2
2023-11-29T11:12:03.643Z,67.7
2023-11-29T11:13:03.999Z,68.2
2023-11-29T11:14:03.220Z,57.6
2023-11-29T11:15:03.471Z,69.1
2023-11-29T11:16:03.880Z,63.6
2023-11-29T11:17:03.541Z,54.9
2023-11-29T11:18:03.815Z,53.9
2023-11-29T11:19:03.340Z,48.5
2023-11-29T11:20:03.259Z,60.5
2023-11-29T11:21:03.347Z,54.8
2023-11-29T11:22:03.252Z,50.7
2023-11-29T11:23:03.276Z,99.1
2023-11-29T11:24:03.322Z,66.2
2023-11-29T11:25:03.282Z,50.0
2023-11-29T11:26:31.095Z,53.6
2023-11-29T11:27:30.601Z,35.3
2023-11-29T11:28:30.411Z,68.5
2023-11-29T11:29:30.745Z,49.6
2023-11-29T11:30:30.443Z,44.2
2023-11-29T11:31:30.550Z,41.7
2023-11-29T11:32:30.416Z,38.6
2023-11-29T11:33:30.518Z,43.8
2023-11-29T11:34:30.482Z,39.7
2023-11-29T11:35:30.590Z,39.4
2023-11-29T11:36:30.397Z,39.2
2023-11-29T11:37:30.431Z,35.7
2023-11-29T11:38:30.562Z,35.4
2023-11-29T11:39:30.444Z,37.9
2023-11-29T11:40:30.384Z,35.9
2023-11-29T11:41:30.655Z,39.0
2023-11-29T11:42:30.344Z,39.0
2023-11-29T11:43:30.877Z,44.1
2023-11-29T11:44:30.473Z,40.0
2023-11-29T11:45:30.438Z,42.2
2023-11-29T11:46:30.761Z,39.6
2023-11-29T11:47:31.390Z,40.7
2023-11-29T11:48:30.538Z,38.5
2023-11-29T11:49:30.340Z,36.3
2023-11-29T11:50:30.717Z,36.8
2023-11-29T11:51:30.327Z,38.0
2023-11-29T11:52:30.513Z,35.6
2023-11-29T11:53:30.593Z,37.4
2023-11-29T11:54:30.388Z,35.4
2023-11-29T11:55:30.451Z,35.0
2023-11-29T11:56:30.415Z,37.2
2023-11-29T11:57:30.413Z,36.0
2023-11-29T11:58:30.662Z,31.7
2023-11-29T11:59:30.666Z,36.7
2023-11-29T12:00:31.578Z,33.9
2023-11-29T12:01:30.406Z,33.4
2023-11-29T12:02:30.642Z,37.1
2023-11-29T12:03:30.465Z,35.0
2023-11-29T12:04:30.537Z,34.4
2023-11-29T12:05:30.402Z,32.0
2023-11-29T12:06:30.384Z,31.1
2023-11-29T12:07:30.310Z,32.7
2023-11-29T12:08:30.360Z,32.9
2023-11-29T12:09:30.333Z,33.2
2023-11-29T12:10:30.509Z,40.3
2023-11-29T12:11:30.357Z,35.0
2023-11-29T12:12:31.114Z,52.1
2023-11-29T12:13:30.314Z,38.5
2023-11-29T12:14:30.843Z,39.4
2023-11-29T12:15:30.634Z,35.5
2023-11-29T12:16:30.295Z,32.9
2023-11-29T12:17:30.435Z,33.8
2023-11-29T12:18:30.428Z,31.8
2023-11-29T12:19:30.287Z,34.7
2023-11-29T12:20:30.350Z,35.5
2023-11-29T12:21:30.776Z,33.6
2023-11-29T12:22:31.059Z,34.3
2023-11-29T12:23:31.222Z,34.3
2023-11-29T12:24:36.383Z,32.8
2023-11-29T12:25:30.432Z,34.6
2023-11-29T12:26:30.327Z,35.5
2023-11-29T12:27:30.478Z,37.2
2023-11-29T12:28:30.348Z,35.2
2023-11-29T12:29:30.356Z,35.3
2023-11-29T12:30:30.564Z,35.6
2023-11-29T12:31:30.376Z,36.5
2023-11-29T12:32:30.394Z,37.5
2023-11-29T12:33:30.377Z,34.8
2023-11-29T12:34:30.296Z,35.6
2023-11-29T12:35:30.433Z,38.1
2023-11-29T12:36:30.281Z,38.1
2023-11-29T12:37:30.322Z,33.9
2023-11-29T12:38:30.279Z,33.9
2023-11-29T12:39:30.331Z,34.2
2023-11-29T12:40:30.259Z,36.3
2023-11-29T12:41:30.317Z,35.3
2023-11-29T12:42:30.345Z,34.2
2023-11-29T12:43:30.417Z,36.7
2023-11-29T12:44:30.295Z,39.9
2023-11-29T12:45:30.616Z,37.0
2023-11-29T12:46:30.640Z,36.8
2023-11-29T12:47:30.586Z,36.0
2023-11-29T12:48:30.341Z,35.7
2023-11-29T12:49:30.277Z,37.4
2023-11-29T12:50:30.283Z,37.8
2023-11-29T12:51:30.246Z,38.9
2023-11-29T12:52:30.368Z,38.4
2023-11-29T12:53:30.274Z,40.2
2023-11-29T12:54:30.404Z,38.2
2023-11-29T12:55:30.290Z,42.5
2023-11-29T12:56:30.274Z,41.7
2023-11-29T12:57:30.591Z,46.4
2023-11-29T12:58:30.376Z,40.2
2023-11-29T12:59:30.270Z,43.2
2023-11-29T13:00:30.307Z,39.2
2023-11-29T13:01:30.250Z,39.7
2023-11-29T13:02:30.539Z,40.2
2023-11-29T13:03:30.413Z,39.1
2023-11-29T13:04:30.359Z,38.8
2023-11-29T13:05:30.311Z,44.9
2023-11-29T13:06:30.268Z,40.4
2023-11-29T13:07:30.255Z,43.7
2023-11-29T13:08:30.209Z,44.0
2023-11-29T13:09:30.380Z,43.3
2023-11-29T13:10:30.206Z,42.0
2023-11-29T13:11:30.221Z,44.3
2023-11-29T13:12:30.201Z,41.5
2023-11-29T13:13:30.214Z,43.0
2023-11-29T13:14:30.285Z,41.5
2023-11-29T13:15:30.172Z,42.5
2023-11-29T13:16:30.313Z,42.1
2023-11-29T13:17:30.326Z,41.4